sensor_id;sensor_type;location;lat;lon;timestamp;P1;durP1;ratioP1;P2;durP2;ratioP2
8927;SDS011;4499;48.304;11.902;2023-01-16T00:01:28;1.73;;;1.30;;
8927;SDS011;4499;48.304;11.902;2023-01-16T00:03:56;2.47;;;1.37;;
8927;SDS011;4499;48.304;11.902;2023-01-16T00:06:26;2.80;;;1.10;;
8927;SDS011;4499;48.304;11.902;2023-01-16T00:08:54;0.97;;;0.90;;
8927;SDS011;4499;48.304;11.902;2023-01-16T00:11:22;1.63;;;1.10;;
8927;SDS011;4499;48.304;11.902;2023-01-16T00:13:51;2.27;;;1.00;;
8927;SDS011;4499;48.304;11.902;2023-01-16T00:16:20;1.17;;;0.73;;
8927;SDS011;4499;48.304;11.902;2023-01-16T00:18:48;1.40;;;0.87;;
8927;SDS011;4499;48.304;11.902;2023-01-16T00:21:16;3.13;;;1.10;;
8927;SDS011;4499;48.304;11.902;2023-01-16T00:23:47;4.30;;;1.00;;
8927;SDS011;4499;48.304;11.902;2023-01-16T00:26:16;5.03;;;1.50;;
8927;SDS011;4499;48.304;11.902;2023-01-16T00:28:44;1.47;;;0.80;;
8927;SDS011;4499;48.304;11.902;2023-01-16T00:31:12;2.90;;;0.70;;
8927;SDS011;4499;48.304;11.902;2023-01-16T00:33:41;1.67;;;0.90;;
8927;SDS011;4499;48.304;11.902;2023-01-16T00:36:10;2.43;;;0.97;;
8927;SDS011;4499;48.304;11.902;2023-01-16T00:38:38;1.40;;;0.83;;
8927;SDS011;4499;48.304;11.902;2023-01-16T00:41:08;1.87;;;0.93;;
8927;SDS011;4499;48.304;11.902;2023-01-16T00:43:37;2.83;;;0.80;;
8927;SDS011;4499;48.304;11.902;2023-01-16T00:46:06;1.07;;;0.80;;
8927;SDS011;4499;48.304;11.902;2023-01-16T00:48:34;2.00;;;1.00;;
8927;SDS011;4499;48.304;11.902;2023-01-16T00:51:02;1.20;;;0.80;;
8927;SDS011;4499;48.304;11.902;2023-01-16T00:53:31;1.63;;;0.80;;
8927;SDS011;4499;48.304;11.902;2023-01-16T00:55:59;1.97;;;0.87;;
8927;SDS011;4499;48.304;11.902;2023-01-16T00:58:28;3.33;;;1.20;;
8927;SDS011;4499;48.304;11.902;2023-01-16T01:00:58;4.23;;;1.50;;
8927;SDS011;4499;48.304;11.902;2023-01-16T01:03:27;1.77;;;1.23;;
8927;SDS011;4499;48.304;11.902;2023-01-16T01:05:55;1.00;;;0.77;;
8927;SDS011;4499;48.304;11.902;2023-01-16T01:08:23;1.57;;;0.93;;
8927;SDS011;4499;48.304;11.902;2023-01-16T01:10:52;1.67;;;0.97;;
8927;SDS011;4499;48.304;11.902;2023-01-16T01:13:20;1.87;;;0.97;;
8927;SDS011;4499;48.304;11.902;2023-01-16T01:15:50;1.77;;;1.00;;
8927;SDS011;4499;48.304;11.902;2023-01-16T01:18:18;0.90;;;0.70;;
8927;SDS011;4499;48.304;11.902;2023-01-16T01:20:46;1.23;;;0.80;;
8927;SDS011;4499;48.304;11.902;2023-01-16T01:23:15;2.30;;;0.83;;
8927;SDS011;4499;48.304;11.902;2023-01-16T01:25:43;1.13;;;0.77;;
8927;SDS011;4499;48.304;11.902;2023-01-16T01:28:12;1.20;;;0.70;;
8927;SDS011;4499;48.304;11.902;2023-01-16T01:30:40;4.43;;;0.97;;
8927;SDS011;4499;48.304;11.902;2023-01-16T01:33:09;0.73;;;0.67;;
8927;SDS011;4499;48.304;11.902;2023-01-16T01:35:38;1.13;;;0.70;;
8927;SDS011;4499;48.304;11.902;2023-01-16T01:38:06;2.93;;;0.90;;
8927;SDS011;4499;48.304;11.902;2023-01-16T01:40:35;1.03;;;0.60;;
8927;SDS011;4499;48.304;11.902;2023-01-16T01:43:08;1.83;;;0.80;;
8927;SDS011;4499;48.304;11.902;2023-01-16T01:45:38;0.87;;;0.80;;
8927;SDS011;4499;48.304;11.902;2023-01-16T01:48:12;2.10;;;0.90;;
8927;SDS011;4499;48.304;11.902;2023-01-16T01:50:47;2.97;;;0.90;;
8927;SDS011;4499;48.304;11.902;2023-01-16T01:53:20;1.07;;;0.80;;
8927;SDS011;4499;48.304;11.902;2023-01-16T01:55:52;1.47;;;0.90;;
8927;SDS011;4499;48.304;11.902;2023-01-16T01:58:23;3.60;;;1.00;;
8927;SDS011;4499;48.304;11.902;2023-01-16T02:00:55;1.87;;;0.80;;
8927;SDS011;4499;48.304;11.902;2023-01-16T02:03:29;1.93;;;0.87;;
8927;SDS011;4499;48.304;11.902;2023-01-16T02:06:00;3.57;;;0.70;;
8927;SDS011;4499;48.304;11.902;2023-01-16T02:08:33;1.03;;;0.70;;
8927;SDS011;4499;48.304;11.902;2023-01-16T02:11:03;1.60;;;0.77;;
8927;SDS011;4499;48.304;11.902;2023-01-16T02:13:36;1.80;;;0.80;;
8927;SDS011;4499;48.304;11.902;2023-01-16T02:16:05;0.83;;;0.80;;
8927;SDS011;4499;48.304;11.902;2023-01-16T02:18:52;2.60;;;0.90;;
8927;SDS011;4499;48.304;11.902;2023-01-16T02:21:45;2.67;;;0.90;;
8927;SDS011;4499;48.304;11.902;2023-01-16T02:27:47;2.53;;;1.00;;
8927;SDS011;4499;48.304;11.902;2023-01-16T02:30:57;0.67;;;0.67;;
8927;SDS011;4499;48.304;11.902;2023-01-16T02:33:48;1.97;;;0.90;;
8927;SDS011;4499;48.304;11.902;2023-01-16T02:36:26;1.97;;;0.90;;
8927;SDS011;4499;48.304;11.902;2023-01-16T02:39:03;1.47;;;0.77;;
8927;SDS011;4499;48.304;11.902;2023-01-16T02:41:41;1.80;;;0.80;;
8927;SDS011;4499;48.304;11.902;2023-01-16T02:44:18;1.23;;;0.90;;
8927;SDS011;4499;48.304;11.902;2023-01-16T02:47:05;3.40;;;1.00;;
8927;SDS011;4499;48.304;11.902;2023-01-16T02:49:41;2.10;;;1.33;;
8927;SDS011;4499;48.304;11.902;2023-01-16T02:52:18;0.80;;;0.60;;
8927;SDS011;4499;48.304;11.902;2023-01-16T02:54:52;1.90;;;0.70;;
8927;SDS011;4499;48.304;11.902;2023-01-16T02:57:26;1.67;;;0.83;;
8927;SDS011;4499;48.304;11.902;2023-01-16T03:00:02;0.50;;;0.50;;
8927;SDS011;4499;48.304;11.902;2023-01-16T03:02:33;1.00;;;0.90;;
8927;SDS011;4499;48.304;11.902;2023-01-16T03:05:02;2.67;;;0.87;;
8927;SDS011;4499;48.304;11.902;2023-01-16T03:07:44;1.50;;;0.83;;
8927;SDS011;4499;48.304;11.902;2023-01-16T03:13:35;0.80;;;0.80;;
8927;SDS011;4499;48.304;11.902;2023-01-16T03:16:17;3.90;;;1.00;;
8927;SDS011;4499;48.304;11.902;2023-01-16T03:18:56;1.57;;;0.77;;
8927;SDS011;4499;48.304;11.902;2023-01-16T03:21:41;1.20;;;0.70;;
8927;SDS011;4499;48.304;11.902;2023-01-16T03:24:25;0.77;;;0.60;;
8927;SDS011;4499;48.304;11.902;2023-01-16T03:27:00;0.90;;;0.80;;
8927;SDS011;4499;48.304;11.902;2023-01-16T03:29:38;1.33;;;0.70;;
8927;SDS011;4499;48.304;11.902;2023-01-16T03:32:13;1.37;;;0.87;;
8927;SDS011;4499;48.304;11.902;2023-01-16T03:34:51;2.93;;;0.90;;
8927;SDS011;4499;48.304;11.902;2023-01-16T03:37:25;2.97;;;0.70;;
8927;SDS011;4499;48.304;11.902;2023-01-16T03:40:01;1.10;;;0.80;;
8927;SDS011;4499;48.304;11.902;2023-01-16T03:42:32;1.30;;;0.77;;
8927;SDS011;4499;48.304;11.902;2023-01-16T03:45:05;1.67;;;0.50;;
8927;SDS011;4499;48.304;11.902;2023-01-16T03:47:39;1.00;;;0.77;;
8927;SDS011;4499;48.304;11.902;2023-01-16T03:50:11;2.03;;;0.70;;
8927;SDS011;4499;48.304;11.902;2023-01-16T03:52:43;1.10;;;0.80;;
8927;SDS011;4499;48.304;11.902;2023-01-16T03:55:16;1.13;;;0.80;;
8927;SDS011;4499;48.304;11.902;2023-01-16T03:57:48;1.27;;;0.80;;
8927;SDS011;4499;48.304;11.902;2023-01-16T04:00:19;1.07;;;0.70;;
8927;SDS011;4499;48.304;11.902;2023-01-16T04:02:51;1.37;;;0.80;;
8927;SDS011;4499;48.304;11.902;2023-01-16T04:05:26;0.80;;;0.70;;
8927;SDS011;4499;48.304;11.902;2023-01-16T04:07:57;2.20;;;0.90;;
8927;SDS011;4499;48.304;11.902;2023-01-16T04:10:29;1.37;;;1.00;;
8927;SDS011;4499;48.304;11.902;2023-01-16T04:13:00;1.60;;;0.90;;
8927;SDS011;4499;48.304;11.902;2023-01-16T04:15:32;1.60;;;0.90;;
8927;SDS011;4499;48.304;11.902;2023-01-16T04:18:03;2.07;;;0.97;;
8927;SDS011;4499;48.304;11.902;2023-01-16T04:20:33;1.33;;;0.90;;
8927;SDS011;4499;48.304;11.902;2023-01-16T04:23:03;1.97;;;1.10;;
8927;SDS011;4499;48.304;11.902;2023-01-16T04:25:31;1.80;;;0.90;;
8927;SDS011;4499;48.304;11.902;2023-01-16T04:27:59;1.07;;;0.97;;
8927;SDS011;4499;48.304;11.902;2023-01-16T04:30:28;1.63;;;0.97;;
8927;SDS011;4499;48.304;11.902;2023-01-16T04:32:56;1.00;;;0.90;;
8927;SDS011;4499;48.304;11.902;2023-01-16T04:35:27;1.27;;;1.10;;
8927;SDS011;4499;48.304;11.902;2023-01-16T04:37:57;0.97;;;0.87;;
8927;SDS011;4499;48.304;11.902;2023-01-16T04:40:25;1.20;;;1.10;;
8927;SDS011;4499;48.304;11.902;2023-01-16T04:42:54;3.97;;;1.63;;
8927;SDS011;4499;48.304;11.902;2023-01-16T04:45:23;2.53;;;1.20;;
8927;SDS011;4499;48.304;11.902;2023-01-16T04:47:51;2.40;;;1.30;;
8927;SDS011;4499;48.304;11.902;2023-01-16T04:50:19;1.97;;;1.43;;
8927;SDS011;4499;48.304;11.902;2023-01-16T04:52:47;2.77;;;1.80;;
8927;SDS011;4499;48.304;11.902;2023-01-16T04:55:17;2.43;;;1.83;;
8927;SDS011;4499;48.304;11.902;2023-01-16T04:57:46;4.67;;;1.90;;
8927;SDS011;4499;48.304;11.902;2023-01-16T05:00:15;3.17;;;1.90;;
8927;SDS011;4499;48.304;11.902;2023-01-16T05:02:44;2.93;;;1.63;;
8927;SDS011;4499;48.304;11.902;2023-01-16T05:05:12;1.33;;;1.23;;
8927;SDS011;4499;48.304;11.902;2023-01-16T05:07:40;1.87;;;1.07;;
8927;SDS011;4499;48.304;11.902;2023-01-16T05:10:09;3.03;;;1.40;;
8927;SDS011;4499;48.304;11.902;2023-01-16T05:12:39;1.87;;;1.57;;
8927;SDS011;4499;48.304;11.902;2023-01-16T05:15:08;1.70;;;1.50;;
8927;SDS011;4499;48.304;11.902;2023-01-16T05:17:36;2.10;;;1.23;;
8927;SDS011;4499;48.304;11.902;2023-01-16T05:20:05;2.27;;;1.40;;
8927;SDS011;4499;48.304;11.902;2023-01-16T05:25:10;2.13;;;1.30;;
8927;SDS011;4499;48.304;11.902;2023-01-16T05:27:39;2.00;;;1.30;;
8927;SDS011;4499;48.304;11.902;2023-01-16T05:30:09;1.60;;;1.50;;
8927;SDS011;4499;48.304;11.902;2023-01-16T05:32:38;3.10;;;1.50;;
8927;SDS011;4499;48.304;11.902;2023-01-16T05:35:06;3.90;;;1.67;;
8927;SDS011;4499;48.304;11.902;2023-01-16T05:37:35;1.67;;;1.13;;
8927;SDS011;4499;48.304;11.902;2023-01-16T05:40:03;2.93;;;1.20;;
8927;SDS011;4499;48.304;11.902;2023-01-16T05:42:32;1.10;;;0.90;;
8927;SDS011;4499;48.304;11.902;2023-01-16T05:45:02;4.70;;;1.17;;
8927;SDS011;4499;48.304;11.902;2023-01-16T05:47:31;1.40;;;1.20;;
8927;SDS011;4499;48.304;11.902;2023-01-16T05:49:59;1.43;;;1.30;;
8927;SDS011;4499;48.304;11.902;2023-01-16T05:52:27;3.43;;;1.80;;
8927;SDS011;4499;48.304;11.902;2023-01-16T05:54:56;2.47;;;1.80;;
8927;SDS011;4499;48.304;11.902;2023-01-16T05:57:24;2.40;;;1.43;;
8927;SDS011;4499;48.304;11.902;2023-01-16T05:59:52;1.73;;;1.30;;
8927;SDS011;4499;48.304;11.902;2023-01-16T06:02:22;2.03;;;1.30;;
8927;SDS011;4499;48.304;11.902;2023-01-16T06:04:50;1.57;;;1.20;;
8927;SDS011;4499;48.304;11.902;2023-01-16T06:07:19;1.33;;;1.20;;
8927;SDS011;4499;48.304;11.902;2023-01-16T06:09:47;1.73;;;1.47;;
8927;SDS011;4499;48.304;11.902;2023-01-16T06:12:16;3.93;;;1.70;;
8927;SDS011;4499;48.304;11.902;2023-01-16T06:14:45;2.47;;;1.70;;
8927;SDS011;4499;48.304;11.902;2023-01-16T06:17:14;3.13;;;1.80;;
8927;SDS011;4499;48.304;11.902;2023-01-16T06:19:45;2.97;;;1.90;;
8927;SDS011;4499;48.304;11.902;2023-01-16T06:22:13;3.10;;;1.70;;
8927;SDS011;4499;48.304;11.902;2023-01-16T06:24:41;2.37;;;1.70;;
8927;SDS011;4499;48.304;11.902;2023-01-16T06:27:09;3.27;;;1.83;;
8927;SDS011;4499;48.304;11.902;2023-01-16T06:29:38;1.70;;;1.30;;
8927;SDS011;4499;48.304;11.902;2023-01-16T06:32:08;1.33;;;1.23;;
8927;SDS011;4499;48.304;11.902;2023-01-16T06:34:36;1.30;;;1.20;;
8927;SDS011;4499;48.304;11.902;2023-01-16T06:37:05;1.97;;;1.30;;
8927;SDS011;4499;48.304;11.902;2023-01-16T06:39:34;2.27;;;1.20;;
8927;SDS011;4499;48.304;11.902;2023-01-16T06:42:02;2.93;;;1.40;;
8927;SDS011;4499;48.304;11.902;2023-01-16T06:44:31;1.30;;;1.20;;
8927;SDS011;4499;48.304;11.902;2023-01-16T06:47:00;1.53;;;1.23;;
8927;SDS011;4499;48.304;11.902;2023-01-16T06:49:29;1.40;;;1.30;;
8927;SDS011;4499;48.304;11.902;2023-01-16T06:51:57;3.13;;;1.60;;
8927;SDS011;4499;48.304;11.902;2023-01-16T06:54:27;4.03;;;1.80;;
8927;SDS011;4499;48.304;11.902;2023-01-16T06:56:56;2.80;;;2.10;;
8927;SDS011;4499;48.304;11.902;2023-01-16T06:59:24;3.87;;;2.50;;
8927;SDS011;4499;48.304;11.902;2023-01-16T07:01:52;3.07;;;2.00;;
8927;SDS011;4499;48.304;11.902;2023-01-16T07:04:21;2.03;;;1.70;;
8927;SDS011;4499;48.304;11.902;2023-01-16T07:06:49;4.03;;;2.00;;
8927;SDS011;4499;48.304;11.902;2023-01-16T07:09:19;2.50;;;1.70;;
8927;SDS011;4499;48.304;11.902;2023-01-16T07:11:53;2.93;;;1.53;;
8927;SDS011;4499;48.304;11.902;2023-01-16T07:14:21;3.20;;;1.50;;
8927;SDS011;4499;48.304;11.902;2023-01-16T07:17:07;1.70;;;1.50;;
8927;SDS011;4499;48.304;11.902;2023-01-16T07:19:54;2.07;;;1.40;;
8927;SDS011;4499;48.304;11.902;2023-01-16T07:22:40;3.50;;;1.30;;
8927;SDS011;4499;48.304;11.902;2023-01-16T07:25:12;1.40;;;1.20;;
8927;SDS011;4499;48.304;11.902;2023-01-16T07:27:44;1.77;;;1.00;;
8927;SDS011;4499;48.304;11.902;2023-01-16T07:30:15;1.73;;;1.10;;
8927;SDS011;4499;48.304;11.902;2023-01-16T07:32:44;1.60;;;1.30;;
8927;SDS011;4499;48.304;11.902;2023-01-16T07:35:13;1.80;;;1.47;;
8927;SDS011;4499;48.304;11.902;2023-01-16T07:37:41;3.60;;;1.60;;
8927;SDS011;4499;48.304;11.902;2023-01-16T07:40:12;1.97;;;1.50;;
8927;SDS011;4499;48.304;11.902;2023-01-16T07:42:41;2.90;;;1.97;;
8927;SDS011;4499;48.304;11.902;2023-01-16T07:45:10;2.03;;;1.70;;
8927;SDS011;4499;48.304;11.902;2023-01-16T07:47:38;2.87;;;1.80;;
8927;SDS011;4499;48.304;11.902;2023-01-16T07:50:07;2.73;;;1.70;;
8927;SDS011;4499;48.304;11.902;2023-01-16T07:52:35;2.53;;;1.70;;
8927;SDS011;4499;48.304;11.902;2023-01-16T07:55:04;4.17;;;1.87;;
8927;SDS011;4499;48.304;11.902;2023-01-16T07:57:34;2.40;;;1.43;;
8927;SDS011;4499;48.304;11.902;2023-01-16T08:00:03;1.87;;;1.30;;
8927;SDS011;4499;48.304;11.902;2023-01-16T08:02:33;1.93;;;1.33;;
8927;SDS011;4499;48.304;11.902;2023-01-16T08:05:01;2.37;;;1.60;;
8927;SDS011;4499;48.304;11.902;2023-01-16T08:07:30;2.53;;;1.70;;
8927;SDS011;4499;48.304;11.902;2023-01-16T08:09:58;1.83;;;1.57;;
8927;SDS011;4499;48.304;11.902;2023-01-16T08:12:26;1.60;;;1.50;;
8927;SDS011;4499;48.304;11.902;2023-01-16T08:14:54;1.27;;;1.17;;
8927;SDS011;4499;48.304;11.902;2023-01-16T08:17:22;1.40;;;1.30;;
8927;SDS011;4499;48.304;11.902;2023-01-16T08:19:52;2.87;;;1.57;;
8927;SDS011;4499;48.304;11.902;2023-01-16T08:22:20;1.40;;;1.30;;
8927;SDS011;4499;48.304;11.902;2023-01-16T08:24:48;2.63;;;1.47;;
8927;SDS011;4499;48.304;11.902;2023-01-16T08:27:17;2.27;;;1.30;;
8927;SDS011;4499;48.304;11.902;2023-01-16T08:29:45;2.03;;;1.60;;
8927;SDS011;4499;48.304;11.902;2023-01-16T08:32:16;4.57;;;1.63;;
8927;SDS011;4499;48.304;11.902;2023-01-16T08:34:44;2.53;;;1.50;;
8927;SDS011;4499;48.304;11.902;2023-01-16T08:37:14;2.43;;;1.53;;
8927;SDS011;4499;48.304;11.902;2023-01-16T08:39:42;2.13;;;1.53;;
8927;SDS011;4499;48.304;11.902;2023-01-16T08:42:10;1.87;;;1.50;;
8927;SDS011;4499;48.304;11.902;2023-01-16T08:44:58;3.93;;;1.50;;
8927;SDS011;4499;48.304;11.902;2023-01-16T08:47:46;1.60;;;1.50;;
8927;SDS011;4499;48.304;11.902;2023-01-16T08:50:32;2.27;;;1.30;;
8927;SDS011;4499;48.304;11.902;2023-01-16T08:53:24;3.50;;;1.80;;
8927;SDS011;4499;48.304;11.902;2023-01-16T08:55:53;2.10;;;1.60;;
8927;SDS011;4499;48.304;11.902;2023-01-16T08:58:21;1.53;;;1.40;;
8927;SDS011;4499;48.304;11.902;2023-01-16T09:00:50;2.10;;;1.40;;
8927;SDS011;4499;48.304;11.902;2023-01-16T09:03:18;2.33;;;1.50;;
8927;SDS011;4499;48.304;11.902;2023-01-16T09:05:47;2.13;;;1.50;;
8927;SDS011;4499;48.304;11.902;2023-01-16T09:08:15;2.40;;;1.93;;
8927;SDS011;4499;48.304;11.902;2023-01-16T09:10:44;3.50;;;1.60;;
8927;SDS011;4499;48.304;11.902;2023-01-16T09:13:33;1.70;;;1.40;;
8927;SDS011;4499;48.304;11.902;2023-01-16T09:16:15;2.97;;;1.80;;
8927;SDS011;4499;48.304;11.902;2023-01-16T09:18:44;3.37;;;1.93;;
8927;SDS011;4499;48.304;11.902;2023-01-16T09:21:12;3.17;;;1.80;;
8927;SDS011;4499;48.304;11.902;2023-01-16T09:23:41;2.50;;;1.80;;
8927;SDS011;4499;48.304;11.902;2023-01-16T09:26:11;3.07;;;2.00;;
8927;SDS011;4499;48.304;11.902;2023-01-16T09:28:39;2.90;;;1.83;;
8927;SDS011;4499;48.304;11.902;2023-01-16T09:31:08;2.87;;;1.90;;
8927;SDS011;4499;48.304;11.902;2023-01-16T09:33:36;3.50;;;1.93;;
8927;SDS011;4499;48.304;11.902;2023-01-16T09:36:05;2.10;;;1.70;;
8927;SDS011;4499;48.304;11.902;2023-01-16T09:38:33;3.13;;;2.10;;
8927;SDS011;4499;48.304;11.902;2023-01-16T09:41:01;2.93;;;2.10;;
8927;SDS011;4499;48.304;11.902;2023-01-16T09:43:33;2.77;;;2.20;;
8927;SDS011;4499;48.304;11.902;2023-01-16T09:46:03;4.43;;;2.50;;
8927;SDS011;4499;48.304;11.902;2023-01-16T09:48:36;4.27;;;2.07;;
8927;SDS011;4499;48.304;11.902;2023-01-16T09:51:07;2.97;;;2.00;;
8927;SDS011;4499;48.304;11.902;2023-01-16T09:53:41;2.67;;;2.00;;
8927;SDS011;4499;48.304;11.902;2023-01-16T09:56:32;4.73;;;1.70;;
8927;SDS011;4499;48.304;11.902;2023-01-16T09:59:26;1.73;;;1.60;;
8927;SDS011;4499;48.304;11.902;2023-01-16T10:02:00;1.80;;;1.70;;
8927;SDS011;4499;48.304;11.902;2023-01-16T10:04:37;2.73;;;1.90;;
8927;SDS011;4499;48.304;11.902;2023-01-16T10:07:18;2.63;;;1.70;;
8927;SDS011;4499;48.304;11.902;2023-01-16T10:09:58;2.50;;;1.70;;
8927;SDS011;4499;48.304;11.902;2023-01-16T10:12:34;1.60;;;1.50;;
8927;SDS011;4499;48.304;11.902;2023-01-16T10:15:07;2.60;;;1.50;;
8927;SDS011;4499;48.304;11.902;2023-01-16T10:17:47;1.60;;;1.50;;
8927;SDS011;4499;48.304;11.902;2023-01-16T10:20:26;1.77;;;1.40;;
8927;SDS011;4499;48.304;11.902;2023-01-16T10:23:12;2.60;;;1.70;;
8927;SDS011;4499;48.304;11.902;2023-01-16T10:25:54;2.27;;;1.50;;
8927;SDS011;4499;48.304;11.902;2023-01-16T10:28:34;2.97;;;2.10;;
8927;SDS011;4499;48.304;11.902;2023-01-16T10:31:16;2.43;;;1.60;;
8927;SDS011;4499;48.304;11.902;2023-01-16T10:33:50;2.17;;;1.70;;
8927;SDS011;4499;48.304;11.902;2023-01-16T10:36:24;3.73;;;1.40;;
8927;SDS011;4499;48.304;11.902;2023-01-16T10:38:57;3.40;;;1.87;;
8927;SDS011;4499;48.304;11.902;2023-01-16T10:41:27;2.63;;;1.80;;
8927;SDS011;4499;48.304;11.902;2023-01-16T10:44:22;1.60;;;1.50;;
8927;SDS011;4499;48.304;11.902;2023-01-16T10:47:16;1.53;;;1.30;;
8927;SDS011;4499;48.304;11.902;2023-01-16T10:50:03;1.43;;;1.30;;
8927;SDS011;4499;48.304;11.902;2023-01-16T10:52:33;3.40;;;1.80;;
8927;SDS011;4499;48.304;11.902;2023-01-16T10:55:01;2.67;;;1.63;;
8927;SDS011;4499;48.304;11.902;2023-01-16T10:57:33;2.97;;;1.40;;
8927;SDS011;4499;48.304;11.902;2023-01-16T11:00:04;1.47;;;1.17;;
8927;SDS011;4499;48.304;11.902;2023-01-16T11:02:39;2.17;;;1.40;;
8927;SDS011;4499;48.304;11.902;2023-01-16T11:05:22;1.50;;;1.40;;
8927;SDS011;4499;48.304;11.902;2023-01-16T11:07:52;5.20;;;1.63;;
8927;SDS011;4499;48.304;11.902;2023-01-16T11:10:21;2.37;;;1.30;;
8927;SDS011;4499;48.304;11.902;2023-01-16T11:12:51;1.40;;;1.30;;
8927;SDS011;4499;48.304;11.902;2023-01-16T11:15:37;2.30;;;1.60;;
8927;SDS011;4499;48.304;11.902;2023-01-16T11:18:28;1.87;;;1.13;;
8927;SDS011;4499;48.304;11.902;2023-01-16T11:21:00;2.47;;;1.60;;
8927;SDS011;4499;48.304;11.902;2023-01-16T11:23:41;1.87;;;1.40;;
8927;SDS011;4499;48.304;11.902;2023-01-16T11:26:11;1.30;;;1.20;;
8927;SDS011;4499;48.304;11.902;2023-01-16T11:28:41;1.80;;;1.20;;
8927;SDS011;4499;48.304;11.902;2023-01-16T11:31:14;1.87;;;1.37;;
8927;SDS011;4499;48.304;11.902;2023-01-16T11:33:51;1.90;;;1.20;;
8927;SDS011;4499;48.304;11.902;2023-01-16T11:36:23;2.53;;;1.30;;
8927;SDS011;4499;48.304;11.902;2023-01-16T11:38:53;1.20;;;1.10;;
8927;SDS011;4499;48.304;11.902;2023-01-16T11:41:23;2.30;;;1.10;;
8927;SDS011;4499;48.304;11.902;2023-01-16T11:44:05;2.80;;;1.30;;
8927;SDS011;4499;48.304;11.902;2023-01-16T11:46:58;2.33;;;1.30;;
8927;SDS011;4499;48.304;11.902;2023-01-16T11:49:32;1.97;;;1.40;;
8927;SDS011;4499;48.304;11.902;2023-01-16T11:52:03;3.57;;;2.07;;
8927;SDS011;4499;48.304;11.902;2023-01-16T11:54:32;2.47;;;1.80;;
8927;SDS011;4499;48.304;11.902;2023-01-16T11:57:08;2.20;;;1.20;;
8927;SDS011;4499;48.304;11.902;2023-01-16T12:00:00;1.47;;;1.00;;
8927;SDS011;4499;48.304;11.902;2023-01-16T12:02:41;1.30;;;1.10;;
8927;SDS011;4499;48.304;11.902;2023-01-16T12:05:36;2.57;;;1.30;;
8927;SDS011;4499;48.304;11.902;2023-01-16T12:08:25;1.80;;;1.10;;
8927;SDS011;4499;48.304;11.902;2023-01-16T12:11:11;2.67;;;1.63;;
8927;SDS011;4499;48.304;11.902;2023-01-16T12:13:45;3.27;;;1.53;;
8927;SDS011;4499;48.304;11.902;2023-01-16T12:16:39;1.20;;;1.10;;
8927;SDS011;4499;48.304;11.902;2023-01-16T12:19:20;1.83;;;1.07;;
8927;SDS011;4499;48.304;11.902;2023-01-16T12:22:15;1.30;;;1.20;;
8927;SDS011;4499;48.304;11.902;2023-01-16T12:24:49;1.53;;;1.27;;
8927;SDS011;4499;48.304;11.902;2023-01-16T12:27:30;4.00;;;1.60;;
8927;SDS011;4499;48.304;11.902;2023-01-16T12:30:09;1.33;;;0.87;;
8927;SDS011;4499;48.304;11.902;2023-01-16T12:32:52;1.07;;;0.97;;
8927;SDS011;4499;48.304;11.902;2023-01-16T12:35:32;1.67;;;1.20;;
8927;SDS011;4499;48.304;11.902;2023-01-16T12:38:11;1.17;;;0.90;;
8927;SDS011;4499;48.304;11.902;2023-01-16T12:40:55;0.90;;;0.90;;
8927;SDS011;4499;48.304;11.902;2023-01-16T12:43:57;1.43;;;1.10;;
8927;SDS011;4499;48.304;11.902;2023-01-16T12:46:44;1.60;;;1.10;;
8927;SDS011;4499;48.304;11.902;2023-01-16T12:49:24;1.20;;;1.10;;
8927;SDS011;4499;48.304;11.902;2023-01-16T12:52:08;1.50;;;1.40;;
8927;SDS011;4499;48.304;11.902;2023-01-16T12:54:56;1.67;;;0.90;;
8927;SDS011;4499;48.304;11.902;2023-01-16T13:00:30;1.83;;;1.00;;
8927;SDS011;4499;48.304;11.902;2023-01-16T13:03:09;1.13;;;0.90;;
8927;SDS011;4499;48.304;11.902;2023-01-16T13:05:42;1.03;;;0.90;;
8927;SDS011;4499;48.304;11.902;2023-01-16T13:08:14;0.90;;;0.90;;
8927;SDS011;4499;48.304;11.902;2023-01-16T13:10:50;1.47;;;1.00;;
8927;SDS011;4499;48.304;11.902;2023-01-16T13:13:40;1.13;;;1.00;;
8927;SDS011;4499;48.304;11.902;2023-01-16T13:16:19;1.00;;;0.90;;
8927;SDS011;4499;48.304;11.902;2023-01-16T13:18:52;1.33;;;1.00;;
8927;SDS011;4499;48.304;11.902;2023-01-16T13:21:24;1.30;;;0.90;;
8927;SDS011;4499;48.304;11.902;2023-01-16T13:23:55;1.73;;;1.07;;
8927;SDS011;4499;48.304;11.902;2023-01-16T13:26:28;2.77;;;0.90;;
8927;SDS011;4499;48.304;11.902;2023-01-16T13:28:59;2.10;;;0.77;;
8927;SDS011;4499;48.304;11.902;2023-01-16T13:31:34;0.97;;;0.80;;
8927;SDS011;4499;48.304;11.902;2023-01-16T13:34:07;1.13;;;1.03;;
8927;SDS011;4499;48.304;11.902;2023-01-16T13:36:49;1.80;;;0.90;;
8927;SDS011;4499;48.304;11.902;2023-01-16T13:42:52;1.00;;;0.90;;
8927;SDS011;4499;48.304;11.902;2023-01-16T13:45:46;4.57;;;2.70;;
8927;SDS011;4499;48.304;11.902;2023-01-16T13:48:15;4.73;;;1.87;;
8927;SDS011;4499;48.304;11.902;2023-01-16T13:50:48;3.13;;;1.80;;
8927;SDS011;4499;48.304;11.902;2023-01-16T13:53:21;2.07;;;1.60;;
8927;SDS011;4499;48.304;11.902;2023-01-16T13:56:00;2.73;;;1.30;;
8927;SDS011;4499;48.304;11.902;2023-01-16T13:58:36;5.23;;;2.03;;
8927;SDS011;4499;48.304;11.902;2023-01-16T14:01:06;2.03;;;1.37;;
8927;SDS011;4499;48.304;11.902;2023-01-16T14:04:10;10.67;;;3.57;;
8927;SDS011;4499;48.304;11.902;2023-01-16T14:06:54;15.43;;;6.37;;
8927;SDS011;4499;48.304;11.902;2023-01-16T14:12:40;1.43;;;1.30;;
8927;SDS011;4499;48.304;11.902;2023-01-16T14:15:16;3.33;;;2.00;;
8927;SDS011;4499;48.304;11.902;2023-01-16T14:18:13;5.17;;;2.93;;
8927;SDS011;4499;48.304;11.902;2023-01-16T14:20:49;3.23;;;1.90;;
8927;SDS011;4499;48.304;11.902;2023-01-16T14:23:20;1.33;;;1.03;;
8927;SDS011;4499;48.304;11.902;2023-01-16T14:26:08;3.57;;;1.77;;
8927;SDS011;4499;48.304;11.902;2023-01-16T14:28:45;3.10;;;1.80;;
8927;SDS011;4499;48.304;11.902;2023-01-16T14:31:19;5.03;;;2.20;;
8927;SDS011;4499;48.304;11.902;2023-01-16T14:33:51;3.63;;;2.40;;
8927;SDS011;4499;48.304;11.902;2023-01-16T14:36:23;2.30;;;2.00;;
8927;SDS011;4499;48.304;11.902;2023-01-16T14:38:54;3.10;;;2.23;;
8927;SDS011;4499;48.304;11.902;2023-01-16T14:41:25;3.60;;;2.60;;
8927;SDS011;4499;48.304;11.902;2023-01-16T14:44:14;5.07;;;4.13;;
8927;SDS011;4499;48.304;11.902;2023-01-16T14:47:22;2.40;;;1.90;;
8927;SDS011;4499;48.304;11.902;2023-01-16T14:50:10;4.30;;;1.67;;
8927;SDS011;4499;48.304;11.902;2023-01-16T14:53:03;3.90;;;1.60;;
8927;SDS011;4499;48.304;11.902;2023-01-16T14:56:01;4.03;;;1.87;;
8927;SDS011;4499;48.304;11.902;2023-01-16T14:58:34;10.87;;;8.20;;
8927;SDS011;4499;48.304;11.902;2023-01-16T15:01:07;6.03;;;4.30;;
8927;SDS011;4499;48.304;11.902;2023-01-16T15:04:13;6.17;;;3.30;;
8927;SDS011;4499;48.304;11.902;2023-01-16T15:06:44;6.60;;;3.40;;
8927;SDS011;4499;48.304;11.902;2023-01-16T15:09:17;7.40;;;3.60;;
8927;SDS011;4499;48.304;11.902;2023-01-16T15:11:48;4.10;;;2.77;;
8927;SDS011;4499;48.304;11.902;2023-01-16T15:14:22;6.60;;;3.13;;
8927;SDS011;4499;48.304;11.902;2023-01-16T15:17:03;4.20;;;2.50;;
8927;SDS011;4499;48.304;11.902;2023-01-16T15:20:14;3.83;;;2.43;;
8927;SDS011;4499;48.304;11.902;2023-01-16T15:23:02;9.47;;;3.47;;
8927;SDS011;4499;48.304;11.902;2023-01-16T15:25:38;5.47;;;3.27;;
8927;SDS011;4499;48.304;11.902;2023-01-16T15:28:19;4.33;;;2.80;;
8927;SDS011;4499;48.304;11.902;2023-01-16T15:30:57;3.53;;;2.60;;
8927;SDS011;4499;48.304;11.902;2023-01-16T15:33:28;4.30;;;2.97;;
8927;SDS011;4499;48.304;11.902;2023-01-16T15:36:18;4.00;;;3.00;;
8927;SDS011;4499;48.304;11.902;2023-01-16T15:38:49;3.53;;;2.50;;
8927;SDS011;4499;48.304;11.902;2023-01-16T15:41:21;4.90;;;3.00;;
8927;SDS011;4499;48.304;11.902;2023-01-16T15:44:10;4.13;;;2.80;;
8927;SDS011;4499;48.304;11.902;2023-01-16T15:50:02;6.37;;;3.50;;
8927;SDS011;4499;48.304;11.902;2023-01-16T15:52:42;4.57;;;3.10;;
8927;SDS011;4499;48.304;11.902;2023-01-16T15:55:11;6.53;;;3.63;;
8927;SDS011;4499;48.304;11.902;2023-01-16T15:57:46;7.97;;;3.60;;
8927;SDS011;4499;48.304;11.902;2023-01-16T16:00:26;5.23;;;3.53;;
8927;SDS011;4499;48.304;11.902;2023-01-16T16:02:58;7.23;;;3.30;;
8927;SDS011;4499;48.304;11.902;2023-01-16T16:05:37;4.10;;;3.00;;